Time;durP1;ratioP1;P1;durP2;ratioP2;P2;SDS_P1;SDS_P2;PMS_P1;PMS_P2;Temp;Humidity;BMP_temperature;BMP_pressure;BME280_temperature;BME280_humidity;BME280_pressure;Samples;Min_cycle;Max_cycle;Signal;HPM_P1;HPM_P2
2023/07/17 00:00:51;;;;;;;11.20;3.75;;;;;;;21.71;55.07;100704.75;4116373;28;20046;-70
2023/07/17 00:02:56;;;;;;;5.18;3.13;;;;;;;21.81;55.09;100711.53;4109326;28;20050;-70
2023/07/17 00:04:58;;;;;;;;;;;;;;;21.71;55.63;100704.75;4114944;28;20078;-69
2023/07/17 00:07:00;;;;;;;8.02;3.90;;;;;;;21.62;55.71;100716.47;4111066;28;19928;-69
2023/07/17 00:09:03;;;;;;;8.25;3.55;;;;;;;21.57;56.02;100715.75;4113640;28;20038;-70
2023/07/17 00:11:06;;;;;;;5.45;2.95;;;;;;;21.56;56.16;100722.78;4115086;28;21527;-70
2023/07/17 00:13:09;;;;;;;6.75;4.03;;;;;;;21.56;56.33;100721.94;4111016;28;20504;-70
2023/07/17 00:15:13;;;;;;;7.70;4.40;;;;;;;21.62;55.84;100716.47;4113647;28;20039;-70
2023/07/17 00:17:16;;;;;;;7.53;3.35;;;;;;;21.51;56.04;100719.41;4111416;28;20132;-70
2023/07/17 00:19:20;;;;;;;6.15;3.33;;;;;;;21.52;56.25;100715.84;4114788;28;20031;-70
2023/07/17 00:21:24;;;;;;;11.43;3.80;;;;;;;21.37;55.81;100714.44;4109938;28;20536;-70
2023/07/17 00:23:26;;;;;;;8.00;4.05;;;;;;;21.38;56.11;100710.06;4111067;28;20062;-71
2023/07/17 00:25:29;;;;;;;7.68;3.28;;;;;;;21.39;55.95;100715.28;4111719;28;20401;-71
2023/07/17 00:27:31;;;;;;;8.13;3.72;;;;;;;21.41;55.75;100712.59;4109902;28;20078;-71
2023/07/17 00:29:34;;;;;;;7.70;3.38;;;;;;;21.33;56.22;100706.66;4110900;28;20039;-71
2023/07/17 00:31:38;;;;;;;5.80;3.20;;;;;;;21.26;56.16;100706.81;4113944;28;20125;-71
2023/07/17 00:33:41;;;;;;;6.22;3.78;;;;;;;21.18;56.12;100703.50;4089612;29;20105;-71
2023/07/17 00:35:45;;;;;;;6.35;3.20;;;;;;;21.17;56.58;100706.19;4113571;28;20551;-70
2023/07/17 00:37:48;;;;;;;9.45;4.00;;;;;;;21.18;56.60;100707.91;4110105;28;20074;-71
2023/07/17 00:39:51;;;;;;;9.93;3.97;;;;;;;21.14;56.93;100707.13;4107869;28;20130;-71
2023/07/17 00:41:53;;;;;;;5.35;3.22;;;;;;;21.17;56.78;100709.69;4112813;28;20046;-71
2023/07/17 00:43:56;;;;;;;7.07;3.55;;;;;;;21.13;56.37;100713.34;4112270;28;20065;-71
2023/07/17 00:45:59;;;;;;;5.38;3.03;;;;;;;21.09;57.15;100711.66;4110920;28;20057;-71
2023/07/17 00:48:04;;;;;;;7.40;3.97;;;;;;;21.17;56.49;100708.81;4112652;28;20548;-71
2023/07/17 00:50:08;;;;;;;10.02;3.85;;;;;;;21.07;56.22;100713.47;4110716;28;20063;-71
2023/07/17 00:52:12;;;;;;;6.38;3.28;;;;;;;21.02;56.32;100710.94;4112296;28;20049;-71
2023/07/17 00:54:15;;;;;;;;;;;;;;;20.87;56.66;100708.69;4112255;28;20041;-71
2023/07/17 00:56:18;;;;;;;7.82;3.90;;;;;;;20.88;56.68;100708.66;4111047;28;19930;-71
2023/07/17 00:58:21;;;;;;;12.43;5.40;;;;;;;20.91;56.72;100711.22;4113660;28;21483;-71
2023/07/17 01:00:24;;;;;;;6.07;3.15;;;;;;;20.91;57.31;100713.00;4110775;28;20473;-71
2023/07/17 01:02:27;;;;;;;14.68;4.60;;;;;;;21.04;57.25;100708.25;4114486;28;20026;-71
2023/07/17 01:04:30;;;;;;;5.38;3.30;;;;;;;21.05;57.05;100715.28;4112564;28;20078;-71
2023/07/17 01:06:32;;;;;;;10.52;3.40;;;;;;;21.07;56.69;100709.06;4113487;28;20106;-71
2023/07/17 01:08:36;;;;;;;7.05;3.75;;;;;;;21.05;56.39;100707.38;4112767;28;20062;-72
2023/07/17 01:10:39;;;;;;;;;;;;;;;20.87;57.41;100714.84;4113853;28;20043;-71
2023/07/17 01:12:44;;;;;;;8.57;3.88;;;;;;;20.84;57.02;100717.56;4111077;28;19964;-72
2023/07/17 01:14:47;;;;;;;11.23;3.78;;;;;;;20.84;57.20;100716.72;4097579;28;20105;-72
2023/07/17 01:16:50;;;;;;;7.40;3.22;;;;;;;20.77;57.38;100721.25;4102714;28;20047;-71
2023/07/17 01:18:53;;;;;;;10.77;3.67;;;;;;;20.88;57.79;100716.59;4111301;28;20049;-71
2023/07/17 01:20:56;;;;;;;5.60;3.45;;;;;;;20.93;57.71;100712.03;4106829;28;20047;-72
2023/07/17 01:23:03;;;;;;;6.78;3.75;;;;;;;20.94;57.30;100720.84;4112436;28;20050;-72
2023/07/17 01:25:07;;;;;;;12.23;4.53;;;;;;;20.95;57.12;100719.94;4111517;28;20381;-72
2023/07/17 01:27:10;;;;;;;7.85;3.95;;;;;;;20.91;57.03;100721.78;4120707;28;20034;-71
2023/07/17 01:29:13;;;;;;;5.88;3.35;;;;;;;20.84;57.75;100720.22;4109977;28;20058;-71
2023/07/17 01:31:15;;;;;;;8.60;3.95;;;;;;;20.83;57.59;100715.81;4114150;28;20171;-73
2023/07/17 01:33:18;;;;;;;5.00;3.10;;;;;;;20.83;57.82;100721.09;4113284;28;20149;-72
2023/07/17 01:35:21;;;;;;;5.70;3.22;;;;;;;20.82;57.93;100729.06;4112460;28;20484;-72
2023/07/17 01:37:24;;;;;;;5.88;3.30;;;;;;;20.74;58.09;100723.97;4110262;28;20137;-72
2023/07/17 01:39:28;;;;;;;7.72;3.20;;;;;;;20.71;58.07;100724.06;4113049;28;20130;-72
2023/07/17 01:41:35;;;;;;;5.78;3.50;;;;;;;20.77;57.91;100728.31;4114155;28;21580;-72
2023/07/17 01:43:38;;;;;;;9.48;4.03;;;;;;;20.76;57.95;100730.06;4111568;28;20567;-71
2023/07/17 01:45:41;;;;;;;10.75;3.33;;;;;;;20.76;57.81;100727.44;4111407;28;20066;-72
2023/07/17 01:47:44;;;;;;;8.80;3.97;;;;;;;20.72;57.70;100723.13;4111379;28;20134;-71
2023/07/17 01:49:46;;;;;;;8.35;3.92;;;;;;;20.65;57.75;100721.53;4127790;28;20046;-72
2023/07/17 01:51:49;;;;;;;7.50;3.22;;;;;;;20.60;57.57;100729.53;4110247;28;20043;-72
2023/07/17 01:53:52;;;;;;;5.57;3.40;;;;;;;20.57;57.33;100722.56;4095781;28;20694;-71
2023/07/17 01:55:56;;;;;;;8.65;3.78;;;;;;;20.60;57.24;100723.41;4108072;28;20046;-71
2023/07/17 01:57:59;;;;;;;6.45;3.78;;;;;;;20.53;57.51;100726.19;4111770;28;20125;-71
2023/07/17 02:00:03;;;;;;;7.35;3.75;;;;;;;20.49;57.23;100721.88;4111503;28;20066;-71
2023/07/17 02:02:15;;;;;;;6.00;3.42;;;;;;;20.50;57.79;100722.72;4106514;28;20038;-71
2023/07/17 02:04:18;;;;;;;7.43;4.22;;;;;;;20.50;57.03;100722.72;4103331;28;20125;-71
2023/07/17 02:06:21;;;;;;;8.15;3.55;;;;;;;20.50;56.65;100720.97;4111591;28;20042;-71
2023/07/17 02:08:24;;;;;;;7.00;3.58;;;;;;;20.47;57.16;100723.69;4108596;28;20599;-71
2023/07/17 02:10:27;;;;;;;6.68;3.83;;;;;;;20.54;57.16;100724.41;4115637;28;20038;-71
2023/07/17 02:12:31;;;;;;;6.60;3.05;;;;;;;20.51;57.60;100720.06;4112755;28;20061;-71
2023/07/17 02:14:35;;;;;;;7.82;3.90;;;;;;;20.57;56.95;100727.84;4109448;28;20066;-72
2023/07/17 02:16:38;;;;;;;7.75;3.83;;;;;;;20.53;57.30;100734.09;4110607;28;20085;-71
2023/07/17 02:18:41;;;;;;;8.93;3.83;;;;;;;20.50;57.29;100734.19;4112524;28;20508;-71
2023/07/17 02:20:44;;;;;;;10.60;3.92;;;;;;;20.47;57.21;100733.38;4112589;28;20043;-71
2023/07/17 02:22:47;;;;;;;4.68;3.20;;;;;;;20.39;58.33;100731.75;4111778;28;20492;-71
2023/07/17 02:24:50;;;;;;;8.13;4.20;;;;;;;20.45;58.08;100735.19;4112655;28;20042;-71
2023/07/17 02:26:53;;;;;;;8.85;4.28;;;;;;;20.56;56.59;100727.91;4112531;28;20049;-70
2023/07/17 02:28:56;;;;;;;5.82;3.83;;;;;;;20.40;57.58;100735.28;4109358;28;20129;-70
2023/07/17 02:30:59;;;;;;;9.27;4.10;;;;;;;20.34;57.26;100738.94;4111306;28;20049;-71
2023/07/17 02:33:03;;;;;;;8.63;3.45;;;;;;;20.31;57.54;100746.91;4111171;28;20039;-70
2023/07/17 02:35:06;;;;;;;5.67;3.53;;;;;;;20.26;58.11;100745.28;4111177;28;20035;-71
2023/07/17 02:37:10;;;;;;;6.33;3.50;;;;;;;20.30;57.77;100741.69;4110111;28;20046;-71
2023/07/17 02:39:14;;;;;;;13.38;4.53;;;;;;;20.28;57.26;100749.63;4108342;28;20491;-71
2023/07/17 02:41:17;;;;;;;8.10;4.43;;;;;;;20.29;57.47;100745.22;4124388;28;20129;-71
2023/07/17 02:43:20;;;;;;;7.47;3.67;;;;;;;20.20;57.49;100747.13;4111460;28;21576;-71
2023/07/17 02:45:25;;;;;;;10.13;4.97;;;;;;;20.13;57.89;100749.94;4108546;28;20047;-71
2023/07/17 02:47:26;;;;;;;;;;;;;;;20.02;58.42;100753.66;4107474;28;20232;-72
2023/07/17 02:49:30;;;;;;;8.13;3.97;;;;;;;20.05;58.25;100753.59;4110393;28;19969;-71
2023/07/17 02:51:33;;;;;;;8.48;3.78;;;;;;;20.10;58.58;100758.78;4113103;28;20074;-71
2023/07/17 02:53:35;;;;;;;5.53;3.33;;;;;;;20.18;58.59;100766.53;4090593;29;20047;-71
2023/07/17 02:55:38;;;;;;;8.05;4.20;;;;;;;20.22;58.38;100761.19;4111851;23;20067;-63
2023/07/17 02:57:42;;;;;;;7.85;4.00;;;;;;;20.27;58.52;100763.72;4095064;29;20049;-63
2023/07/17 02:59:44;;;;;;;6.93;3.58;;;;;;;20.34;58.05;100761.81;4096270;29;20043;-63
2023/07/17 03:01:49;;;;;;;7.30;3.92;;;;;;;20.42;58.20;100767.81;4096990;29;20043;-63
2023/07/17 03:03:52;;;;;;;7.88;3.63;;;;;;;20.34;57.99;100769.72;4096486;29;20067;-63
2023/07/17 03:05:57;;;;;;;7.25;3.85;;;;;;;20.35;58.53;100771.47;4083103;28;20047;-63
2023/07/17 03:08:00;;;;;;;8.07;3.42;;;;;;;20.46;58.40;100769.47;4065620;29;20040;-63
2023/07/17 03:10:03;;;;;;;8.88;3.60;;;;;;;20.56;58.24;100771.00;4068657;29;20060;-63
2023/07/17 03:12:07;;;;;;;9.45;3.80;;;;;;;20.48;58.08;100774.72;4079711;29;20039;-63
2023/07/17 03:14:10;;;;;;;9.10;4.60;;;;;;;20.37;58.09;100775.81;4068117;29;20118;-62
2023/07/17 03:16:13;;;;;;;6.35;3.42;;;;;;;20.31;58.47;100775.06;4066146;29;20048;-63
2023/07/17 03:18:18;;;;;;;6.20;3.60;;;;;;;20.28;58.47;100770.75;4055326;29;20052;-62
2023/07/17 03:20:21;;;;;;;6.63;4.10;;;;;;;20.24;58.21;100769.06;4083235;29;20485;-62
2023/07/17 03:22:23;;;;;;;4.70;2.88;;;;;;;20.11;58.80;100772.88;4085845;29;20106;-62
2023/07/17 03:24:26;;;;;;;8.27;3.90;;;;;;;20.08;59.12;100779.06;4087896;28;20440;-62
2023/07/17 03:26:29;;;;;;;7.22;3.50;;;;;;;20.17;58.87;100778.03;4055627;29;20055;-62
2023/07/17 03:28:32;;;;;;;6.95;3.95;;;;;;;20.21;59.02;100772.63;4085991;29;20055;-62
2023/07/17 03:30:34;;;;;;;11.30;3.90;;;;;;;20.17;58.90;100773.59;4072729;29;20039;-62
2023/07/17 03:32:38;;;;;;;7.15;3.97;;;;;;;20.11;59.37;100772.88;4052194;29;20047;-62
2023/07/17 03:34:43;;;;;;;7.38;3.50;;;;;;;20.10;59.36;100771.97;4068257;29;20581;-62
2023/07/17 03:36:46;;;;;;;5.88;3.10;;;;;;;20.08;59.53;100773.78;4065648;29;20104;-62
2023/07/17 03:38:49;;;;;;;7.50;3.63;;;;;;;20.08;59.73;100784.34;4070822;29;20036;-63
2023/07/17 03:40:52;;;;;;;5.93;3.17;;;;;;;20.04;59.67;100793.22;4085391;29;20071;-62
2023/07/17 03:42:55;;;;;;;6.07;3.33;;;;;;;19.94;59.85;100791.66;4057149;29;20053;-63
2023/07/17 03:44:59;;;;;;;9.00;3.55;;;;;;;20.05;59.96;100794.97;4080057;29;20095;-63
2023/07/17 03:47:06;;;;;;;6.57;3.35;;;;;;;20.22;59.53;100792.88;4085419;29;20460;-63
2023/07/17 03:49:10;;;;;;;5.38;3.10;;;;;;;20.33;59.38;100789.13;4086986;29;20075;-63
2023/07/17 03:51:15;;;;;;;7.80;3.97;;;;;;;20.48;59.07;100788.78;4068629;29;20130;-63
2023/07/17 03:53:19;;;;;;;5.72;3.40;;;;;;;20.51;58.70;100791.34;4076416;29;20049;-63
2023/07/17 03:55:22;;;;;;;4.78;3.00;;;;;;;20.58;58.67;100785.03;4082849;28;20436;-63
2023/07/17 03:57:25;;;;;;;6.40;3.53;;;;;;;20.55;58.61;100790.41;4085100;29;20039;-63
2023/07/17 03:59:29;;;;;;;5.63;3.33;;;;;;;20.51;58.63;100788.72;4072682;29;20524;-63
2023/07/17 04:01:32;;;;;;;6.72;3.55;;;;;;;20.39;58.91;100800.41;4072266;29;20054;-63
2023/07/17 04:03:36;;;;;;;7.03;3.67;;;;;;;20.31;59.17;100796.19;4069179;29;20052;-63
2023/07/17 04:05:39;;;;;;;8.52;4.03;;;;;;;20.28;59.45;100796.25;4072323;29;20048;-63
2023/07/17 04:07:43;;;;;;;6.45;3.30;;;;;;;20.33;59.55;100797.91;4083841;29;20040;-63
2023/07/17 04:09:46;;;;;;;7.90;3.55;;;;;;;20.29;59.68;100801.50;4070876;29;20048;-63
2023/07/17 04:11:49;;;;;;;7.80;3.13;;;;;;;20.25;60.02;100801.63;4068892;29;20032;-62
2023/07/17 04:13:54;;;;;;;8.00;3.67;;;;;;;20.31;59.89;100801.47;4067326;29;20056;-63
2023/07/17 04:16:00;;;;;;;7.95;3.53;;;;;;;20.32;60.08;100808.50;4067575;29;20040;-63
2023/07/17 04:18:04;;;;;;;6.90;3.40;;;;;;;20.35;59.82;100809.31;4084798;29;20122;-63
2023/07/17 04:20:09;;;;;;;5.60;3.20;;;;;;;20.39;59.88;100810.13;4069648;29;20036;-63
2023/07/17 04:22:13;;;;;;;5.60;2.97;;;;;;;20.37;59.94;100802.22;4087133;29;20110;-63
2023/07/17 04:24:17;;;;;;;6.63;3.38;;;;;;;20.43;60.08;100803.88;4068253;29;20103;-63
2023/07/17 04:26:23;;;;;;;8.02;3.65;;;;;;;20.49;60.26;100809.03;4070281;29;20421;-63
2023/07/17 04:28:26;;;;;;;7.78;3.70;;;;;;;20.49;60.29;100813.44;4067210;29;20135;-63
2023/07/17 04:30:30;;;;;;;10.55;4.03;;;;;;;20.44;60.14;100813.53;4066160;29;20063;-62
2023/07/17 04:32:32;;;;;;;10.52;3.90;;;;;;;20.34;60.22;100822.53;4086153;29;20078;-63
2023/07/17 04:34:35;;;;;;;5.95;3.00;;;;;;;20.32;60.30;100814.66;4069383;29;20056;-63
2023/07/17 04:36:38;;;;;;;7.50;3.60;;;;;;;20.36;60.23;100812.84;4068567;29;20070;-63
2023/07/17 04:38:41;;;;;;;6.03;3.65;;;;;;;20.40;60.31;100817.16;4087086;29;20047;-63
2023/07/17 04:40:45;;;;;;;5.10;2.70;;;;;;;20.32;60.53;100819.94;4083008;29;20513;-63
2023/07/17 04:42:49;;;;;;;6.43;3.60;;;;;;;20.38;60.81;100825.09;4068172;29;20054;-63
2023/07/17 04:44:52;;;;;;;5.88;3.10;;;;;;;20.37;60.63;100822.47;4068934;29;20091;-63
2023/07/17 04:46:55;;;;;;;7.33;3.50;;;;;;;20.35;60.82;100830.44;4076453;29;20200;-63
2023/07/17 04:48:58;;;;;;;5.82;3.13;;;;;;;20.32;60.65;100822.56;4073392;29;20048;-63
2023/07/17 04:51:01;;;;;;;5.47;3.40;;;;;;;20.36;60.96;100826.88;4077974;29;20032;-63
2023/07/17 04:53:04;;;;;;;8.63;3.88;;;;;;;20.42;60.72;100822.41;4067429;29;20048;-63
2023/07/17 04:55:08;;;;;;;8.55;3.55;;;;;;;20.47;60.50;100831.97;4064354;29;20459;-63
2023/07/17 04:57:12;;;;;;;6.28;3.35;;;;;;;20.43;60.56;100829.41;4065581;29;20466;-63
2023/07/17 04:59:16;;;;;;;7.70;3.60;;;;;;;20.45;60.36;100830.25;4066561;29;20043;-63
2023/07/17 05:01:19;;;;;;;13.50;3.55;;;;;;;20.53;60.26;100828.31;4084347;29;20543;-63
2023/07/17 05:03:23;;;;;;;6.80;3.35;;;;;;;20.59;60.14;100828.19;4082034;29;20047;-63
2023/07/17 05:05:26;;;;;;;7.57;3.67;;;;;;;20.66;59.33;100826.28;4069154;29;20098;-63
2023/07/17 05:07:30;;;;;;;5.72;3.50;;;;;;;20.66;59.35;100824.56;4072211;29;20035;-64
2023/07/17 05:09:33;;;;;;;6.72;3.47;;;;;;;20.60;59.23;100829.91;4067458;29;20091;-63
2023/07/17 05:11:36;;;;;;;11.63;4.13;;;;;;;20.54;59.73;100828.25;4069150;29;20044;-63
2023/07/17 05:13:42;;;;;;;9.82;3.75;;;;;;;20.59;59.70;100828.19;4068898;29;20493;-63
2023/07/17 05:15:45;;;;;;;10.77;3.45;;;;;;;20.65;59.90;100832.47;4067564;29;20044;-63
2023/07/17 05:17:49;;;;;;;5.30;3.08;;;;;;;20.71;59.66;100835.88;4086705;29;20509;-63
2023/07/17 05:19:51;;;;;;;5.85;3.20;;;;;;;20.75;59.73;100837.56;4069288;29;20075;-64
2023/07/17 05:21:54;;;;;;;10.50;3.88;;;;;;;20.83;59.43;100834.72;4083982;29;20039;-63
2023/07/17 05:23:57;;;;;;;6.38;3.13;;;;;;;20.86;59.72;100842.59;4066685;29;20067;-64
2023/07/17 05:26:01;;;;;;;4.63;2.85;;;;;;;20.91;59.15;100835.44;4063294;29;20040;-63
2023/07/17 05:28:05;;;;;;;6.07;3.13;;;;;;;20.96;59.10;100842.41;4084009;29;20043;-64
2023/07/17 05:30:11;;;;;;;7.07;3.05;;;;;;;20.93;58.71;100843.34;4069556;29;20058;-64
2023/07/17 05:32:14;;;;;;;8.20;4.00;;;;;;;20.93;58.45;100844.19;4050820;29;20060;-63
2023/07/17 05:34:17;;;;;;;5.15;3.22;;;;;;;20.97;58.50;100844.13;4081244;29;20076;-63
2023/07/17 05:36:20;;;;;;;7.10;3.67;;;;;;;21.02;57.81;100847.53;4064296;29;20071;-63
2023/07/17 05:38:23;;;;;;;6.15;3.10;;;;;;;21.00;57.75;100849.34;4080434;29;20042;-64
2023/07/17 05:40:26;;;;;;;7.73;3.10;;;;;;;21.07;58.09;100840.34;4068488;29;20164;-63
2023/07/17 05:42:33;;;;;;;9.32;4.22;;;;;;;21.02;57.36;100850.19;4066100;29;20311;-63
2023/07/17 05:44:36;;;;;;;10.20;4.00;;;;;;;21.06;57.05;100849.22;4082116;28;20514;-63
2023/07/17 05:46:40;;;;;;;9.07;4.03;;;;;;;21.06;57.38;100854.50;4067641;29;20099;-63
2023/07/17 05:48:44;;;;;;;9.27;4.15;;;;;;;21.03;57.61;100857.22;4081808;29;20043;-63
2023/07/17 05:50:47;;;;;;;7.05;3.38;;;;;;;21.14;57.82;100852.53;4086728;29;20501;-63
2023/07/17 05:52:50;;;;;;;5.90;3.15;;;;;;;21.27;57.21;100853.13;4089927;29;20516;-63
2023/07/17 05:54:53;;;;;;;6.68;3.10;;;;;;;21.27;56.78;100858.41;4082188;28;20521;-63
2023/07/17 05:56:56;;;;;;;6.97;3.38;;;;;;;21.31;56.82;100861.84;4067000;29;20036;-63
2023/07/17 05:58:59;;;;;;;6.50;3.47;;;;;;;21.53;56.73;100856.94;4072482;29;20039;-63
2023/07/17 06:01:02;;;;;;;9.77;3.90;;;;;;;21.63;56.24;100860.22;4079948;29;20038;-63
2023/07/17 06:03:07;;;;;;;6.28;3.60;;;;;;;21.66;55.98;100862.78;4068530;29;20193;-63
2023/07/17 06:05:11;;;;;;;6.55;3.55;;;;;;;21.67;56.07;100860.13;4086187;28;20490;-63
2023/07/17 06:07:14;;;;;;;8.95;3.60;;;;;;;21.72;55.73;100870.56;4083031;29;20046;-63
2023/07/17 06:09:17;;;;;;;8.50;4.43;;;;;;;21.81;55.34;100862.38;4086146;29;20538;-63
2023/07/17 06:11:19;;;;;;;10.02;4.10;;;;;;;21.75;55.84;100866.06;4068615;29;20047;-63
2023/07/17 06:13:22;;;;;;;7.70;3.53;;;;;;;21.81;55.60;100858.88;4066064;29;20446;-63
2023/07/17 06:15:25;;;;;;;8.80;3.92;;;;;;;21.95;55.13;100857.59;4084587;28;20038;-63
2023/07/17 06:17:28;;;;;;;7.07;3.35;;;;;;;21.86;55.29;100863.16;4055157;29;20051;-63
2023/07/17 06:19:32;;;;;;;8.15;4.05;;;;;;;21.94;55.42;100860.28;4082722;29;20036;-63
2023/07/17 06:21:35;;;;;;;11.02;3.50;;;;;;;21.94;55.06;100861.16;4084964;29;20043;-63
2023/07/17 06:23:38;;;;;;;9.85;3.42;;;;;;;21.99;55.09;100857.50;4087268;29;20100;-63
2023/07/17 06:25:41;;;;;;;7.55;3.33;;;;;;;21.97;55.03;100861.06;4067826;29;20133;-63
2023/07/17 06:27:44;;;;;;;8.55;4.07;;;;;;;21.97;54.56;100858.41;4083697;29;20044;-63
2023/07/17 06:29:47;;;;;;;12.18;4.30;;;;;;;21.98;54.54;100859.31;4086674;29;20086;-63
2023/07/17 06:31:50;;;;;;;13.90;4.13;;;;;;;22.07;54.51;100861.69;4086990;29;20040;-63
2023/07/17 06:33:53;;;;;;;6.85;3.60;;;;;;;22.14;54.06;100857.97;4081493;29;20046;-63
2023/07/17 06:35:56;;;;;;;9.95;4.03;;;;;;;22.26;53.92;100862.06;4080548;29;20140;-64
2023/07/17 06:38:00;;;;;;;9.05;3.30;;;;;;;22.17;54.17;100859.66;4081177;29;20122;-63
2023/07/17 06:40:04;;;;;;;7.70;3.83;;;;;;;22.26;54.49;100864.69;4079924;29;20122;-64
2023/07/17 06:42:08;;;;;;;;;;;;;;;22.32;54.46;100866.34;4068627;29;20112;-64
2023/07/17 06:44:11;;;;;;;8.95;3.30;;;;;;;22.45;53.72;100872.16;4050085;29;20381;-63
2023/07/17 06:46:13;;;;;;;6.75;3.38;;;;;;;22.58;53.40;100876.19;4082413;29;20087;-63
2023/07/17 06:48:16;;;;;;;7.78;3.90;;;;;;;22.61;53.21;100872.59;4082460;29;20134;-63
2023/07/17 06:50:19;;;;;;;9.40;3.67;;;;;;;22.74;52.67;100878.41;4077073;29;20453;-63
2023/07/17 06:52:24;;;;;;;9.23;3.83;;;;;;;22.79;52.56;100876.47;4081803;29;20040;-63
2023/07/17 06:54:26;;;;;;;8.75;3.92;;;;;;;22.81;52.44;100882.63;4088219;28;20396;-63
2023/07/17 06:56:29;;;;;;;5.38;3.60;;;;;;;22.81;51.95;100885.25;4090666;29;20039;-63
2023/07/17 06:58:32;;;;;;;7.60;3.08;;;;;;;22.83;52.31;100871.03;4068115;29;20036;-63
2023/07/17 07:00:35;;;;;;;10.38;4.75;;;;;;;23.01;51.74;100876.69;4087850;29;20044;-63
2023/07/17 07:02:38;;;;;;;7.78;3.80;;;;;;;23.09;51.13;100884.41;4089768;29;20063;-62
2023/07/17 07:04:41;;;;;;;9.07;3.88;;;;;;;23.12;51.28;100887.88;4083657;29;20048;-63
2023/07/17 07:06:45;;;;;;;10.38;3.97;;;;;;;23.16;51.90;100888.66;4068917;29;20115;-63
2023/07/17 07:08:49;;;;;;;8.57;3.05;;;;;;;23.27;51.71;100886.50;4088456;29;20035;-63
2023/07/17 07:10:53;;;;;;;8.90;3.22;;;;;;;23.38;51.48;100879.97;4081637;29;20067;-63
2023/07/17 07:12:54;;;;;;;7.65;3.03;;;;;;;23.40;51.16;100888.78;4089961;29;20068;-63
2023/07/17 07:14:57;;;;;;;7.43;3.22;;;;;;;23.50;51.20;100892.88;4068315;29;20430;-63
2023/07/17 07:17:00;;;;;;;8.45;3.67;;;;;;;23.55;50.34;100898.03;4086065;29;20544;-63
2023/07/17 07:19:03;;;;;;;6.05;3.38;;;;;;;23.62;49.88;100900.41;4081388;29;20506;-63
2023/07/17 07:21:06;;;;;;;7.03;3.88;;;;;;;23.70;49.79;100893.06;4087679;29;20044;-66
2023/07/17 07:23:09;;;;;;;8.25;3.83;;;;;;;23.80;48.79;100904.25;4087899;29;20124;-66
2023/07/17 07:25:14;;;;;;;6.43;3.40;;;;;;;23.79;48.70;100896.34;4085007;29;20123;-65
2023/07/17 07:27:17;;;;;;;10.02;4.90;;;;;;;23.82;48.73;100897.09;4085968;29;20492;-65
2023/07/17 07:29:20;;;;;;;6.43;3.72;;;;;;;23.88;48.18;100902.22;4086313;29;20052;-65
2023/07/17 07:31:23;;;;;;;6.20;3.65;;;;;;;23.86;47.89;100904.06;4051802;29;20124;-65
2023/07/17 07:33:25;;;;;;;6.90;3.85;;;;;;;23.99;47.20;100899.22;4084796;29;20052;-65
2023/07/17 07:35:28;;;;;;;9.93;4.05;;;;;;;24.02;46.82;100899.09;4055415;29;20112;-65
2023/07/17 07:37:31;;;;;;;7.30;3.85;;;;;;;24.04;47.38;100902.56;4090511;29;20509;-65
2023/07/17 07:39:34;;;;;;;6.45;3.90;;;;;;;24.07;46.83;100906.06;4085232;29;20042;-65
2023/07/17 07:41:38;;;;;;;13.38;4.65;;;;;;;24.17;46.25;100902.16;4085189;29;20067;-65
2023/07/17 07:43:41;;;;;;;;;;;;;;;24.05;46.51;100901.66;4073623;29;20494;-65
2023/07/17 07:45:44;;;;;;;5.68;3.30;;;;;;;24.12;47.01;100912.06;4084045;29;20452;-65
2023/07/17 07:47:47;;;;;;;9.52;4.10;;;;;;;24.17;45.55;100902.16;4086506;29;20490;-65
2023/07/17 07:49:51;;;;;;;8.20;4.10;;;;;;;24.24;46.10;100903.66;4072184;29;20036;-65
2023/07/17 07:51:54;;;;;;;6.78;3.97;;;;;;;24.31;45.73;100910.50;4088120;29;20099;-65
2023/07/17 07:53:57;;;;;;;11.02;3.92;;;;;;;24.28;45.56;100905.25;4084404;29;20036;-65
2023/07/17 07:56:00;;;;;;;9.65;4.05;;;;;;;24.32;45.86;100904.25;4071398;29;20048;-65
2023/07/17 07:58:05;;;;;;;8.02;3.33;;;;;;;24.36;45.85;100903.22;4086311;29;20065;-66
2023/07/17 08:00:08;;;;;;;;;;;;;;;24.46;45.59;100908.19;4084024;29;20039;-65
2023/07/17 08:02:20;;;;;;;10.70;4.22;;;;;;;24.52;44.93;100908.84;4088834;29;19949;-65
2023/07/17 08:04:30;;;;;;;10.65;4.05;;;;;;;24.65;44.60;100903.97;4081246;29;20047;-65
2023/07/17 08:06:33;;;;;;;6.00;3.58;;;;;;;24.63;44.89;100907.59;4086799;29;20668;-66
2023/07/17 08:08:36;;;;;;;11.63;4.45;;;;;;;24.76;45.43;100906.22;4088370;29;20067;-65
2023/07/17 08:10:40;;;;;;;7.47;3.47;;;;;;;24.79;44.51;100906.09;4086663;29;20461;-66
2023/07/17 08:12:43;;;;;;;12.90;4.88;;;;;;;24.95;43.88;100905.50;4086809;29;20589;-66
2023/07/17 08:14:47;;;;;;;8.30;3.53;;;;;;;24.94;44.76;100896.69;4088587;28;20135;-65
2023/07/17 08:16:51;;;;;;;11.18;4.60;;;;;;;25.05;44.54;100909.53;4083091;29;20394;-68
2023/07/17 08:18:54;;;;;;;11.07;3.65;;;;;;;25.06;44.46;100903.31;4086212;29;20513;-67
2023/07/17 08:20:56;;;;;;;8.35;3.70;;;;;;;25.20;43.43;100905.41;4084158;29;20078;-67
2023/07/17 08:22:59;;;;;;;10.80;3.85;;;;;;;25.24;43.89;100901.69;4081080;29;20042;-67
2023/07/17 08:25:02;;;;;;;10.70;4.50;;;;;;;25.36;43.33;100901.22;4085810;28;20047;-67
2023/07/17 08:27:06;;;;;;;9.20;3.63;;;;;;;25.36;42.29;100905.69;4083171;29;20053;-67
2023/07/17 08:29:09;;;;;;;5.97;2.85;;;;;;;25.49;41.81;100908.72;4085470;29;20043;-67
2023/07/17 08:31:13;;;;;;;9.32;3.22;;;;;;;25.49;41.36;100901.59;4081211;29;20044;-67
2023/07/17 08:33:16;;;;;;;;;;;;;;;25.46;41.38;100900.88;4088144;29;20051;-67
2023/07/17 08:35:19;;;;;;;9.25;3.35;;;;;;;25.40;41.32;100901.97;4085655;28;19926;-68
2023/07/17 08:37:22;;;;;;;9.02;3.38;;;;;;;25.19;40.71;100903.66;4088507;29;20088;-67
2023/07/17 08:39:25;;;;;;;7.30;3.58;;;;;;;25.24;39.67;100899.03;4088039;29;20040;-67
2023/07/17 08:41:28;;;;;;;9.25;3.13;;;;;;;25.19;40.14;100906.31;4085917;29;20494;-68
2023/07/17 08:43:31;;;;;;;12.23;3.17;;;;;;;25.02;39.60;100899.88;4086618;29;20136;-68
2023/07/17 08:45:35;;;;;;;11.80;2.85;;;;;;;25.06;40.04;100903.31;4083371;29;20100;-67
2023/07/17 08:47:40;;;;;;;7.22;3.08;;;;;;;25.05;39.36;100898.91;4087050;29;20048;-67
2023/07/17 08:49:43;;;;;;;8.75;3.08;;;;;;;24.96;39.25;100894.81;4089714;29;20114;-70
2023/07/17 08:51:48;;;;;;;8.20;2.75;;;;;;;24.79;39.44;100898.09;4084040;29;20047;-67
2023/07/17 08:53:55;;;;;;;7.60;2.97;;;;;;;24.88;39.82;100899.56;4087221;29;20067;-67
2023/07/17 08:56:17;;;;;;;12.45;3.53;;;;;;;25.03;41.78;100891.00;4121173;23;20049;-68
2023/07/17 08:58:21;;;;;;;8.73;2.80;;;;;;;25.09;40.67;100901.38;4111701;28;20058;-68
2023/07/17 09:00:24;;;;;;;6.18;2.40;;;;;;;25.06;39.86;100898.84;4113082;28;20046;-69
2023/07/17 09:02:28;;;;;;;5.35;2.45;;;;;;;24.94;39.59;100898.44;4116930;28;20043;-70
2023/07/17 09:04:33;;;;;;;9.23;3.53;;;;;;;24.88;40.41;100899.56;4112097;28;20137;-70
2023/07/17 09:06:36;;;;;;;6.43;3.22;;;;;;;24.79;40.12;100899.91;4107975;28;20063;-70
2023/07/17 09:08:39;;;;;;;10.30;3.03;;;;;;;24.70;40.48;100894.00;4113384;28;20162;-70
2023/07/17 09:10:42;;;;;;;8.98;3.20;;;;;;;24.72;41.42;100894.84;4109623;28;20520;-70
2023/07/17 09:12:49;;;;;;;8.65;3.22;;;;;;;24.82;40.46;100903.31;4109980;28;20043;-70
2023/07/17 09:14:52;;;;;;;5.90;2.92;;;;;;;24.98;40.13;100898.25;4128294;28;20042;-69
2023/07/17 09:17:01;;;;;;;6.25;3.00;;;;;;;25.06;40.03;100892.66;4111642;28;20493;-70
2023/07/17 09:19:04;;;;;;;7.53;3.03;;;;;;;25.28;38.67;100892.69;4110628;28;20138;-70
2023/07/17 09:21:08;;;;;;;8.77;2.88;;;;;;;25.18;39.11;100900.16;4110022;28;20048;-69
2023/07/17 09:23:12;;;;;;;9.57;2.97;;;;;;;25.07;38.17;100889.94;4111239;28;20037;-70
2023/07/17 09:25:16;;;;;;;7.95;3.65;;;;;;;24.96;37.34;100885.97;4108236;28;20120;-65
2023/07/17 09:27:18;;;;;;;5.80;2.45;;;;;;;25.00;37.31;100883.13;4113499;28;20039;-67
2023/07/17 09:29:22;;;;;;;7.72;3.25;;;;;;;25.14;37.31;100879.91;4109351;28;20045;-67
2023/07/17 09:31:25;;;;;;;5.75;3.25;;;;;;;25.25;36.65;100882.16;4109482;28;20042;-67
2023/07/17 09:33:28;;;;;;;6.18;3.15;;;;;;;25.38;35.76;100878.09;4110555;28;20635;-67
2023/07/17 09:35:31;;;;;;;10.00;3.88;;;;;;;25.24;36.43;100880.41;4107579;28;20489;-68